Time;durP1;ratioP1;P1;durP2;ratioP2;P2;SDS_P1;SDS_P2;PMS_P1;PMS_P2;Temp;Humidity;BMP_temperature;BMP_pressure;BME280_temperature;BME280_humidity;BME280_pressure;Samples;Min_cycle;Max_cycle;Signal;HPM_P1;HPM_P2
2022/04/08 00:01:50;;;;;;;;;;;7.10;82.20;;;;;;5066429;28;19912;-87
2022/04/08 00:04:16;;;;;;;;;;;7.10;82.60;;;;;;5067045;28;19920;-88
2022/04/08 00:06:41;;;;;;;;;;;7.00;83.10;;;;;;5068042;28;20006;-87
2022/04/08 00:09:07;;;;;;;;;;;7.10;82.90;;;;;;5069422;28;19917;-88
2022/04/08 00:11:33;;;;;;;;;;;7.00;82.60;;;;;;5067156;28;20007;-90
2022/04/08 00:14:00;;;;;;;;;;;7.00;82.90;;;;;;5071903;28;20027;-88
2022/04/08 00:16:31;;;;;;;;;;;6.90;82.80;;;;;;5055362;28;19936;-89
2022/04/08 00:18:57;;;;;;;;;;;6.90;83.50;;;;;;5074052;28;19908;-86
2022/04/08 00:21:25;;;;;;;;;;;6.90;82.40;;;;;;5072785;28;20311;-86
2022/04/08 00:23:51;;;;;;;;;;;6.90;82.80;;;;;;5061145;28;19980;-87
2022/04/08 00:26:17;;;;;;;;;;;6.90;83.10;;;;;;5072929;28;19956;-86
2022/04/08 00:28:42;;;;;;;;;;;6.90;83.80;;;;;;5066065;28;19963;-87
2022/04/08 00:31:08;;;;;;;;;;;7.00;83.10;;;;;;5071358;28;19941;-87
2022/04/08 00:33:33;;;;;;;;;;;7.00;83.10;;;;;;5073992;28;19987;-87
2022/04/08 00:35:59;;;;;;;;;;;7.00;83.00;;;;;;5095001;28;19913;-88
2022/04/08 00:38:24;;;;;;;;;;;7.00;83.20;;;;;;5091755;28;19912;-88
2022/04/08 00:40:50;;;;;;;;;;;7.00;82.50;;;;;;5069744;28;20027;-87
2022/04/08 00:43:16;;;;;;;;;;;7.00;82.20;;;;;;5070811;28;19936;-88
2022/04/08 00:45:43;;;;;;;;;;;7.00;83.20;;;;;;5079468;28;19916;-88
2022/04/08 00:48:09;;;;;;;;;;;7.00;81.90;;;;;;5070987;28;20268;-87
2022/04/08 00:50:35;;;;;;;;;;;7.00;81.60;;;;;;5067583;28;19920;-85
2022/04/08 00:53:01;;;;;;;;;;;7.00;82.00;;;;;;5073517;28;19916;-88
2022/04/08 00:55:26;;;;;;;;;;;6.90;82.00;;;;;;5073430;28;19977;-87
2022/04/08 00:57:53;;;;;;;;;;;6.90;82.00;;;;;;5069620;28;19960;-87
2022/04/08 01:00:22;;;;;;;;;;;7.00;81.20;;;;;;5067911;28;19916;-85
2022/04/08 01:02:47;;;;;;;;;;;6.90;81.20;;;;;;5073961;28;19935;-86
2022/04/08 01:05:13;;;;;;;;;;;6.90;81.50;;;;;;5069748;28;19920;-86
2022/04/08 01:07:39;;;;;;;;;;;6.90;82.00;;;;;;5061854;28;20023;-87
2022/04/08 01:10:04;;;;;;;;;;;6.90;82.50;;;;;;5068424;28;19962;-87
2022/04/08 01:12:30;;;;;;;;;;;6.80;82.60;;;;;;5066540;28;20287;-86
2022/04/08 01:14:59;;;;;;;;;;;6.90;81.70;;;;;;5064561;28;19923;-86
2022/04/08 01:17:25;;;;;;;;;;;6.80;81.90;;;;;;5061901;28;19908;-87
2022/04/08 01:19:51;;;;;;;;;;;6.80;81.90;;;;;;5063927;28;19921;-87
2022/04/08 01:22:18;;;;;;;;;;;6.80;82.40;;;;;;5062165;28;19912;-87
2022/04/08 01:24:46;;;;;;;;;;;6.90;81.80;;;;;;5061974;28;19920;-88
2022/04/08 01:27:11;;;;;;;;;;;6.80;81.80;;;;;;5052957;28;19912;-87
2022/04/08 01:29:37;;;;;;;;;;;6.80;80.80;;;;;;5057568;28;20268;-87
2022/04/08 01:32:02;;;;;;;;;;;6.90;81.00;;;;;;5062115;28;19913;-87
2022/04/08 01:34:28;;;;;;;;;;;6.80;81.20;;;;;;5072895;28;19931;-86
2022/04/08 01:36:53;;;;;;;;;;;6.80;80.90;;;;;;5070102;28;19912;-86
2022/04/08 01:39:19;;;;;;;;;;;6.90;80.40;;;;;;5070061;28;20022;-87
2022/04/08 01:41:44;;;;;;;;;;;6.90;80.70;;;;;;5066517;28;19959;-86
2022/04/08 01:44:10;;;;;;;;;;;6.80;81.20;;;;;;5063389;28;19917;-86
2022/04/08 01:46:35;;;;;;;;;;;6.90;80.20;;;;;;5069992;28;19916;-86
2022/04/08 01:49:00;;;;;;;;;;;7.00;79.70;;;;;;5060232;28;20347;-86
2022/04/08 01:51:26;;;;;;;;;;;6.90;80.60;;;;;;5091059;28;19908;-87
2022/04/08 01:53:51;;;;;;;;;;;6.90;81.80;;;;;;5075049;28;19920;-86
2022/04/08 01:56:17;;;;;;;;;;;6.90;81.30;;;;;;5064261;28;19912;-86
2022/04/08 01:58:42;;;;;;;;;;;7.00;80.90;;;;;;5060088;28;19935;-86
2022/04/08 02:01:08;;;;;;;;;;;6.90;80.90;;;;;;5059032;28;19912;-86
2022/04/08 02:03:33;;;;;;;;;;;7.00;82.00;;;;;;5056264;28;20019;-86
2022/04/08 02:05:59;;;;;;;;;;;7.00;81.20;;;;;;5053727;28;19992;-86
2022/04/08 02:08:25;;;;;;;;;;;6.90;80.30;;;;;;5066178;28;19925;-86
2022/04/08 02:10:53;;;;;;;;;;;6.80;80.20;;;;;;5068274;28;19956;-86
2022/04/08 02:13:19;;;;;;;;;;;6.70;79.80;;;;;;5051969;28;19939;-86
2022/04/08 02:15:46;;;;;;;;;;;6.70;78.80;;;;;;5054592;28;19914;-85
2022/04/08 02:18:11;;;;;;;;;;;6.60;78.90;;;;;;5063310;28;19995;-86
2022/04/08 02:20:37;;;;;;;;;;;6.60;79.00;;;;;;5055098;28;19995;-85
2022/04/08 02:23:03;;;;;;;;;;;6.60;80.50;;;;;;5062716;28;19967;-85
2022/04/08 02:25:28;;;;;;;;;;;6.60;78.60;;;;;;5065051;28;19923;-87
2022/04/08 02:27:54;;;;;;;;;;;6.60;78.40;;;;;;5063731;28;20061;-86
2022/04/08 02:30:19;;;;;;;;;;;6.50;79.50;;;;;;5061590;28;19912;-85
2022/04/08 02:32:46;;;;;;;;;;;6.50;79.40;;;;;;5057283;28;19913;-87
2022/04/08 02:35:11;;;;;;;;;;;6.30;79.40;;;;;;5069652;28;19916;-87
2022/04/08 02:37:37;;;;;;;;;;;6.30;80.80;;;;;;5064511;28;19913;-86
2022/04/08 02:40:03;;;;;;;;;;;6.40;79.60;;;;;;5070006;28;19913;-86
2022/04/08 02:42:30;;;;;;;;;;;6.50;78.50;;;;;;5061670;28;20005;-86
2022/04/08 02:44:56;;;;;;;;;;;6.40;78.90;;;;;;5065346;28;19913;-85
2022/04/08 02:47:21;;;;;;;;;;;6.30;79.00;;;;;;5064068;28;20348;-86
2022/04/08 02:49:47;;;;;;;;;;;6.30;78.60;;;;;;5040388;22;19925;-87
2022/04/08 02:52:12;;;;;;;;;;;6.30;79.60;;;;;;5017117;28;19922;-87
2022/04/08 02:54:38;;;;;;;;;;;6.20;79.20;;;;;;5017031;28;20004;-85
2022/04/08 02:57:03;;;;;;;;;;;6.20;79.00;;;;;;5013591;28;19917;-85
2022/04/08 02:59:29;;;;;;;;;;;6.20;79.20;;;;;;5012416;28;19933;-86
2022/04/08 03:01:54;;;;;;;;;;;6.10;79.80;;;;;;5009977;28;19917;-87
2022/04/08 03:04:20;;;;;;;;;;;6.10;80.30;;;;;;5026973;28;19928;-91
2022/04/08 03:06:45;;;;;;;;;;;6.20;79.20;;;;;;5025895;28;19981;-86
2022/04/08 03:09:11;;;;;;;;;;;6.20;79.10;;;;;;5013908;28;19924;-85
2022/04/08 03:11:36;;;;;;;;;;;6.20;78.80;;;;;;5006126;28;19921;-86
2022/04/08 03:14:03;;;;;;;;;;;6.20;79.60;;;;;;5012583;28;20376;-86
2022/04/08 03:16:29;;;;;;;;;;;6.20;78.60;;;;;;5023104;28;20273;-86
2022/04/08 03:18:54;;;;;;;;;;;6.20;79.50;;;;;;5007938;28;20047;-86
2022/04/08 03:21:20;;;;;;;;;;;6.20;79.50;;;;;;5008919;28;19918;-89
2022/04/08 03:23:45;;;;;;;;;;;6.10;80.20;;;;;;5023559;28;20155;-86
2022/04/08 03:26:11;;;;;;;;;;;6.20;78.80;;;;;;5014482;28;19933;-91
2022/04/08 03:28:36;;;;;;;;;;;6.20;79.30;;;;;;5011123;28;19913;-86
2022/04/08 03:31:02;;;;;;;;;;;6.20;79.40;;;;;;5008360;28;21191;-86
2022/04/08 03:33:28;;;;;;;;;;;6.10;80.00;;;;;;4995166;28;19972;-85
2022/04/08 03:35:53;;;;;;;;;;;6.20;78.80;;;;;;5006062;28;19917;-86
2022/04/08 03:38:19;;;;;;;;;;;6.30;77.30;;;;;;5009972;28;20300;-87
2022/04/08 03:40:47;;;;;;;;;;;6.30;77.60;;;;;;5011636;28;19924;-86
2022/04/08 03:43:12;;;;;;;;;;;6.30;77.40;;;;;;5003874;28;19914;-85
2022/04/08 03:45:38;;;;;;;;;;;6.20;77.60;;;;;;5011913;28;20237;-87
2022/04/08 03:48:03;;;;;;;;;;;6.20;77.80;;;;;;4998980;28;19977;-87
2022/04/08 03:50:29;;;;;;;;;;;6.20;78.60;;;;;;5011149;28;19909;-86
2022/04/08 03:52:55;;;;;;;;;;;6.10;78.90;;;;;;5013389;28;19944;-86
2022/04/08 03:55:20;;;;;;;;;;;6.10;79.90;;;;;;5011389;28;20195;-86
2022/04/08 03:57:47;;;;;;;;;;;6.10;79.90;;;;;;5024794;28;19979;-87
2022/04/08 04:00:12;;;;;;;;;;;6.10;79.80;;;;;;5027943;28;19977;-86
2022/04/08 04:02:38;;;;;;;;;;;6.00;80.00;;;;;;5013678;28;19963;-86
2022/04/08 04:05:04;;;;;;;;;;;6.00;81.10;;;;;;5015396;28;19928;-86
2022/04/08 04:07:29;;;;;;;;;;;6.00;81.10;;;;;;5015964;28;19944;-87
2022/04/08 04:09:55;;;;;;;;;;;6.00;81.50;;;;;;5020888;28;19914;-86
2022/04/08 04:12:22;;;;;;;;;;;6.00;81.50;;;;;;4995204;28;21878;-86
2022/04/08 04:15:23;;;;;;;;;;;6.00;81.80;;;;;;5011571;28;20431;-86
2022/04/08 04:17:48;;;;;;;;;;;6.00;80.80;;;;;;5014545;28;19914;-87
2022/04/08 04:20:14;;;;;;;;;;;6.10;81.40;;;;;;5013707;28;19910;-87
2022/04/08 04:22:39;;;;;;;;;;;6.10;81.00;;;;;;5014405;28;19919;-87
2022/04/08 04:25:08;;;;;;;;;;;6.10;80.70;;;;;;5001048;28;19948;-87
2022/04/08 04:27:33;;;;;;;;;;;6.10;81.20;;;;;;5014730;28;19909;-87
2022/04/08 04:30:02;;;;;;;;;;;6.10;81.20;;;;;;5011562;28;19919;-89
2022/04/08 04:32:27;;;;;;;;;;;6.00;81.40;;;;;;5023002;28;20412;-87
2022/04/08 04:35:06;;;;;;;;;;;6.00;81.20;;;;;;5023926;28;19925;-87
2022/04/08 04:37:41;;;;;;;;;;;6.10;81.60;;;;;;5014083;28;19917;-87
2022/04/08 04:40:09;;;;;;;;;;;6.10;81.50;;;;;;5029741;28;19920;-87
2022/04/08 04:42:34;;;;;;;;;;;6.10;80.80;;;;;;5013942;28;19993;-88
2022/04/08 04:45:00;;;;;;;;;;;6.00;81.60;;;;;;5014410;28;19918;-87
2022/04/08 04:47:26;;;;;;;;;;;6.10;81.10;;;;;;5018944;28;19921;-87
2022/04/08 04:49:51;;;;;;;;;;;6.10;80.80;;;;;;5025731;28;19929;-88
2022/04/08 04:52:17;;;;;;;;;;;6.00;80.90;;;;;;5037577;28;19917;-89
2022/04/08 04:54:43;;;;;;;;;;;5.90;80.70;;;;;;5026809;28;20008;-88
2022/04/08 04:57:09;;;;;;;;;;;5.80;81.50;;;;;;5003307;28;19997;-87
2022/04/08 04:59:34;;;;;;;;;;;5.80;81.80;;;;;;4997746;28;19913;-87
2022/04/08 05:02:00;;;;;;;;;;;5.70;82.40;;;;;;5013210;28;19973;-87
2022/04/08 05:04:38;;;;;;;;;;;5.70;82.50;;;;;;5011941;28;19953;-87
2022/04/08 05:07:06;;;;;;;;;;;5.70;82.20;;;;;;5013031;28;20016;-87
2022/04/08 05:09:34;;;;;;;;;;;5.70;81.90;;;;;;5012738;28;19919;-87
2022/04/08 05:12:03;;;;;;;;;;;5.80;81.70;;;;;;5018016;28;20013;-87
2022/04/08 05:14:29;;;;;;;;;;;5.80;81.40;;;;;;5030344;28;19921;-89
2022/04/08 05:16:55;;;;;;;;;;;5.90;81.20;;;;;;5028276;28;20377;-88
2022/04/08 05:19:21;;;;;;;;;;;6.00;80.80;;;;;;5025975;28;19922;-87
2022/04/08 05:21:47;;;;;;;;;;;6.10;80.20;;;;;;5016438;28;21392;-86
2022/04/08 05:24:12;;;;;;;;;;;6.10;80.50;;;;;;5014623;28;19909;-87
2022/04/08 05:26:38;;;;;;;;;;;6.10;80.40;;;;;;5013671;28;19932;-87
2022/04/08 05:29:06;;;;;;;;;;;6.00;81.10;;;;;;5013108;28;19935;-87
2022/04/08 05:31:34;;;;;;;;;;;6.00;81.40;;;;;;5015673;28;20465;-88
2022/04/08 05:34:02;;;;;;;;;;;6.00;81.50;;;;;;5013910;28;19940;-87
2022/04/08 05:36:28;;;;;;;;;;;6.00;81.00;;;;;;5013917;28;19916;-87
2022/04/08 05:38:56;;;;;;;;;;;6.00;81.10;;;;;;5014019;28;19909;-87
2022/04/08 05:41:24;;;;;;;;;;;6.10;81.60;;;;;;5014657;28;19914;-87
2022/04/08 05:43:50;;;;;;;;;;;6.10;81.40;;;;;;5027669;28;20071;-87
2022/04/08 05:46:15;;;;;;;;;;;6.10;81.40;;;;;;5021892;28;19921;-85
2022/04/08 05:48:41;;;;;;;;;;;6.20;81.20;;;;;;5015018;28;19927;-83
2022/04/08 05:51:06;;;;;;;;;;;6.20;80.80;;;;;;5014991;28;19964;-85
2022/04/08 05:53:32;;;;;;;;;;;6.20;80.40;;;;;;5025741;28;19917;-81
2022/04/08 05:55:58;;;;;;;;;;;6.20;80.50;;;;;;5013070;28;19945;-84
2022/04/08 05:58:24;;;;;;;;;;;6.20;81.00;;;;;;5011336;28;20349;-83
2022/04/08 06:00:49;;;;;;;;;;;6.20;80.50;;;;;;5011576;28;20003;-84
2022/04/08 06:03:15;;;;;;;;;;;6.10;80.40;;;;;;5013835;28;19953;-83
2022/04/08 06:05:40;;;;;;;;;;;6.30;79.90;;;;;;5008466;28;19997;-83
2022/04/08 06:08:06;;;;;;;;;;;6.10;80.20;;;;;;5008817;28;20276;-86
2022/04/08 06:10:31;;;;;;;;;;;6.20;81.00;;;;;;5013377;28;19921;-85
2022/04/08 06:12:57;;;;;;;;;;;6.30;80.70;;;;;;5016191;28;20227;-86
2022/04/08 06:15:23;;;;;;;;;;;6.30;80.50;;;;;;5022839;28;19913;-85
2022/04/08 06:17:48;;;;;;;;;;;6.30;80.80;;;;;;5004702;28;19925;-86
2022/04/08 06:20:18;;;;;;;;;;;6.40;80.30;;;;;;5013771;28;20012;-84
2022/04/08 06:22:44;;;;;;;;;;;6.50;80.10;;;;;;5007435;28;20000;-85
2022/04/08 06:25:11;;;;;;;;;;;6.60;80.20;;;;;;5012739;28;19979;-84
2022/04/08 06:27:36;;;;;;;;;;;6.60;80.40;;;;;;5012488;28;19909;-84
2022/04/08 06:30:03;;;;;;;;;;;6.70;80.10;;;;;;5012731;28;19917;-85
2022/04/08 06:32:29;;;;;;;;;;;6.70;80.10;;;;;;5022155;28;19939;-84
2022/04/08 06:34:54;;;;;;;;;;;6.80;79.50;;;;;;5013228;28;20396;-86
2022/04/08 06:37:19;;;;;;;;;;;6.90;79.00;;;;;;5014637;28;20012;-85
2022/04/08 06:39:47;;;;;;;;;;;6.80;79.50;;;;;;5009653;28;19920;-86
2022/04/08 06:42:13;;;;;;;;;;;6.80;79.20;;;;;;5015537;28;19949;-86
2022/04/08 06:44:38;;;;;;;;;;;7.00;79.10;;;;;;5015442;28;19940;-86
2022/04/08 06:47:04;;;;;;;;;;;6.90;78.70;;;;;;5011753;28;19975;-85
2022/04/08 06:49:32;;;;;;;;;;;6.80;78.70;;;;;;5013170;28;20364;-86
2022/04/08 06:52:01;;;;;;;;;;;7.00;78.50;;;;;;5014459;28;19918;-86
2022/04/08 06:54:28;;;;;;;;;;;7.00;78.10;;;;;;5008336;28;19940;-85
2022/04/08 06:56:54;;;;;;;;;;;7.10;79.00;;;;;;5009475;28;19967;-85
2022/04/08 06:59:20;;;;;;;;;;;7.10;78.20;;;;;;5012602;28;19922;-86
2022/04/08 07:01:45;;;;;;;;;;;7.20;77.90;;;;;;5014569;28;19914;-80
2022/04/08 07:04:11;;;;;;;;;;;7.30;77.20;;;;;;5018881;28;19928;-87
2022/04/08 07:06:39;;;;;;;;;;;7.50;76.00;;;;;;5010945;28;19952;-86
2022/04/08 07:09:05;;;;;;;;;;;7.50;75.50;;;;;;5014331;28;19917;-88
2022/04/08 07:11:30;;;;;;;;;;;7.60;75.40;;;;;;5034498;28;19949;-88
2022/04/08 07:13:55;;;;;;;;;;;7.60;74.80;;;;;;5026280;28;19917;-88
2022/04/08 07:16:21;;;;;;;;;;;7.70;74.60;;;;;;5016727;28;19944;-88
2022/04/08 07:18:46;;;;;;;;;;;7.70;74.30;;;;;;5018117;28;19913;-87
2022/04/08 07:21:12;;;;;;;;;;;7.70;73.70;;;;;;5017702;28;20052;-87
2022/04/08 07:23:37;;;;;;;;;;;7.70;74.20;;;;;;5014956;28;19917;-87
2022/04/08 07:26:15;;;;;;;;;;;7.70;73.20;;;;;;5011272;28;20564;-87
2022/04/08 07:28:40;;;;;;;;;;;7.60;73.50;;;;;;5003873;28;20007;-87
2022/04/08 07:31:06;;;;;;;;;;;7.70;73.10;;;;;;5012951;28;19909;-86
2022/04/08 07:33:32;;;;;;;;;;;7.90;73.10;;;;;;5011762;28;19924;-87
2022/04/08 07:36:00;;;;;;;;;;;8.00;72.90;;;;;;5012510;28;19919;-86
2022/04/08 07:38:26;;;;;;;;;;;8.00;71.40;;;;;;5021132;28;19913;-87
2022/04/08 07:40:51;;;;;;;;;;;8.20;72.80;;;;;;5016949;28;19914;-86
2022/04/08 07:43:17;;;;;;;;;;;8.20;72.40;;;;;;5011721;28;19910;-87
2022/04/08 07:45:42;;;;;;;;;;;8.30;69.80;;;;;;5027701;28;19910;-86
2022/04/08 07:48:08;;;;;;;;;;;8.40;70.20;;;;;;5018165;28;20004;-86
2022/04/08 07:50:37;;;;;;;;;;;8.30;70.80;;;;;;5019666;28;21090;-87
2022/04/08 07:53:02;;;;;;;;;;;8.20;69.60;;;;;;5029269;28;19914;-87
2022/04/08 07:55:29;;;;;;;;;;;8.30;70.70;;;;;;5014711;28;19941;-84
2022/04/08 07:57:54;;;;;;;;;;;8.30;69.00;;;;;;5016574;28;19910;-85
2022/04/08 08:00:20;;;;;;;;;;;8.30;68.30;;;;;;5011696;28;19909;-86
2022/04/08 08:02:47;;;;;;;;;;;8.50;68.50;;;;;;5009479;28;19920;-85
2022/04/08 08:05:13;;;;;;;;;;;8.50;69.70;;;;;;5025394;28;20397;-88
2022/04/08 08:07:44;;;;;;;;;;;8.60;68.80;;;;;;5031314;28;19917;-88
2022/04/08 08:10:13;;;;;;;;;;;8.70;69.50;;;;;;5022206;28;19961;-86
2022/04/08 08:12:38;;;;;;;;;;;8.80;68.20;;;;;;5015248;28;19960;-87
2022/04/08 08:15:04;;;;;;;;;;;8.80;68.00;;;;;;5030610;28;19914;-88
2022/04/08 08:17:30;;;;;;;;;;;8.90;67.60;;;;;;5034250;28;19901;-88
2022/04/08 08:19:57;;;;;;;;;;;8.90;66.90;;;;;;5022968;28;19921;-86
2022/04/08 08:22:22;;;;;;;;;;;8.90;65.90;;;;;;5012034;28;20013;-87
2022/04/08 08:24:48;;;;;;;;;;;8.90;66.70;;;;;;5015380;28;19918;-86
2022/04/08 08:27:16;;;;;;;;;;;8.80;66.80;;;;;;5006918;28;19968;-88
2022/04/08 08:29:43;;;;;;;;;;;8.90;66.10;;;;;;5014358;28;19985;-88
2022/04/08 08:32:09;;;;;;;;;;;8.90;65.30;;;;;;5020519;28;20009;-88
2022/04/08 08:34:34;;;;;;;;;;;8.90;66.50;;;;;;5010958;28;19992;-85
2022/04/08 08:37:00;;;;;;;;;;;9.00;65.70;;;;;;5012434;28;19921;-86
2022/04/08 08:39:26;;;;;;;;;;;9.00;64.90;;;;;;5013294;28;19970;-89
2022/04/08 08:41:51;;;;;;;;;;;9.00;64.80;;;;;;5029460;28;19936;-87
2022/04/08 08:44:19;;;;;;;;;;;9.10;63.90;;;;;;5032649;28;20009;-89
2022/04/08 08:46:45;;;;;;;;;;;9.10;65.30;;;;;;5032778;28;19938;-87
2022/04/08 08:49:14;;;;;;;;;;;9.10;62.90;;;;;;5014089;28;20005;-86
2022/04/08 08:51:41;;;;;;;;;;;9.10;62.70;;;;;;5019398;28;19947;-84
2022/04/08 08:54:10;;;;;;;;;;;9.10;63.70;;;;;;5031565;28;19918;-88
2022/04/08 08:56:35;;;;;;;;;;;9.10;62.80;;;;;;5014106;28;19917;-86
2022/04/08 08:59:01;;;;;;;;;;;9.10;62.60;;;;;;5014146;28;19917;-87
2022/04/08 09:01:27;;;;;;;;;;;9.10;61.10;;;;;;5009310;28;19922;-86
2022/04/08 09:03:53;;;;;;;;;;;9.20;60.10;;;;;;5009983;28;19919;-86
2022/04/08 09:06:19;;;;;;;;;;;9.20;60.60;;;;;;5018353;28;19901;-88
2022/04/08 09:08:53;;;;;;;;;;;9.10;60.20;;;;;;5021257;28;19948;-87
2022/04/08 09:11:23;;;;;;;;;;;9.30;60.80;;;;;;5015431;28;19936;-87
2022/04/08 09:13:51;;;;;;;;;;;9.30;60.20;;;;;;5039931;28;19922;-86
2022/04/08 09:16:27;;;;;;;;;;;9.20;58.20;;;;;;5019852;28;19913;-86
2022/04/08 09:18:54;;;;;;;;;;;9.30;60.20;;;;;;5010509;28;19914;-87
2022/04/08 09:21:23;;;;;;;;;;;9.30;59.20;;;;;;5019364;28;19918;-86
2022/04/08 09:23:48;;;;;;;;;;;9.40;59.10;;;;;;5023450;28;19925;-86
2022/04/08 09:26:14;;;;;;;;;;;9.50;61.30;;;;;;5020359;28;19921;-86
2022/04/08 09:28:41;;;;;;;;;;;9.60;59.80;;;;;;5029629;28;19909;-86
2022/04/08 09:31:15;;;;;;;;;;;9.70;60.90;;;;;;5027623;28;19921;-87
2022/04/08 09:33:46;;;;;;;;;;;9.80;61.20;;;;;;5015042;28;19945;-87
2022/04/08 09:36:30;;;;;;;;;;;9.80;60.50;;;;;;5014911;28;19914;-87
2022/04/08 09:38:56;;;;;;;;;;;9.80;61.10;;;;;;5008333;28;19948;-87
2022/04/08 09:41:35;;;;;;;;;;;9.70;60.60;;;;;;5018787;28;19913;-86
2022/04/08 09:44:22;;;;;;;;;;;9.70;60.50;;;;;;5008141;28;19980;-87
2022/04/08 09:46:47;;;;;;;;;;;9.70;59.80;;;;;;5017030;28;19936;-87
2022/04/08 09:49:13;;;;;;;;;;;9.80;60.10;;;;;;5024106;28;19976;-86
2022/04/08 09:51:40;;;;;;;;;;;9.90;59.30;;;;;;5016812;28;19917;-87
2022/04/08 09:54:09;;;;;;;;;;;9.70;59.30;;;;;;5015544;28;20446;-86
2022/04/08 09:56:36;;;;;;;;;;;9.80;61.60;;;;;;5008331;28;19925;-85
2022/04/08 09:59:14;;;;;;;;;;;10.00;60.20;;;;;;5011017;28;20032;-87
2022/04/08 10:01:42;;;;;;;;;;;10.00;59.80;;;;;;5008882;28;19914;-85
2022/04/08 10:04:08;;;;;;;;;;;10.10;58.70;;;;;;5012710;28;19932;-85
2022/04/08 10:06:41;;;;;;;;;;;9.90;59.60;;;;;;5011678;28;19972;-86
2022/04/08 10:09:08;;;;;;;;;;;9.90;59.10;;;;;;5013118;28;19913;-85
2022/04/08 10:11:57;;;;;;;;;;;9.90;58.40;;;;;;5015476;28;19914;-85
2022/04/08 10:14:33;;;;;;;;;;;10.00;57.80;;;;;;5028628;28;21575;-88
2022/04/08 10:16:58;;;;;;;;;;;10.00;56.40;;;;;;5016363;28;19981;-88
2022/04/08 10:19:26;;;;;;;;;;;10.00;57.70;;;;;;5032869;28;19989;-88
2022/04/08 10:21:55;;;;;;;;;;;10.10;57.30;;;;;;5023105;28;20013;-88
2022/04/08 10:24:24;;;;;;;;;;;10.20;56.60;;;;;;5022722;28;19916;-87
2022/04/08 10:26:57;;;;;;;;;;;10.30;57.10;;;;;;5016330;28;19922;-86
2022/04/08 10:29:22;;;;;;;;;;;10.30;56.50;;;;;;5026025;28;19906;-86
2022/04/08 10:31:55;;;;;;;;;;;10.50;55.90;;;;;;5025535;28;19925;-85
2022/04/08 10:34:22;;;;;;;;;;;10.50;56.50;;;;;;5026643;28;19925;-87
2022/04/08 10:36:47;;;;;;;;;;;10.50;54.60;;;;;;5017824;28;19913;-86
2022/04/08 10:39:14;;;;;;;;;;;10.60;53.90;;;;;;5010949;28;20017;-86
2022/04/08 10:41:50;;;;;;;;;;;10.60;52.50;;;;;;5012253;28;19913;-87
2022/04/08 10:44:16;;;;;;;;;;;10.40;52.30;;;;;;5007296;28;19960;-86
2022/04/08 10:46:53;;;;;;;;;;;10.30;52.70;;;;;;5012581;28;19918;-86
2022/04/08 10:49:19;;;;;;;;;;;10.30;52.60;;;;;;5010644;28;20008;-85
2022/04/08 10:51:45;;;;;;;;;;;10.30;53.10;;;;;;5014270;28;19945;-86
2022/04/08 10:54:11;;;;;;;;;;;10.30;52.20;;;;;;5014063;28;19971;-86
2022/04/08 10:56:37;;;;;;;;;;;10.20;52.50;;;;;;5007513;28;19918;-86
2022/04/08 10:59:09;;;;;;;;;;;10.10;51.10;;;;;;5010774;28;20004;-86
2022/04/08 11:01:44;;;;;;;;;;;10.10;53.00;;;;;;5009148;28;19941;-86
2022/04/08 11:04:10;;;;;;;;;;;10.20;51.00;;;;;;5021906;28;20241;-86
2022/04/08 11:06:36;;;;;;;;;;;10.40;54.20;;;;;;5026813;28;19942;-86
2022/04/08 11:09:08;;;;;;;;;;;10.40;52.70;;;;;;5022497;28;19926;-87
2022/04/08 11:11:35;;;;;;;;;;;10.30;50.70;;;;;;5010819;28;20021;-86
2022/04/08 11:14:17;;;;;;;;;;;10.40;51.50;;;;;;5011170;28;19964;-89
2022/04/08 11:16:43;;;;;;;;;;;10.40;50.10;;;;;;5001969;28;19952;-86
2022/04/08 11:19:11;;;;;;;;;;;10.30;50.20;;;;;;5020555;28;19967;-85
2022/04/08 11:21:38;;;;;;;;;;;10.30;51.00;;;;;;5009510;28;19914;-86
2022/04/08 11:24:10;;;;;;;;;;;10.30;49.80;;;;;;5013050;28;19918;-87
2022/04/08 11:26:47;;;;;;;;;;;10.40;49.70;;;;;;5010171;28;19991;-86
2022/04/08 11:29:16;;;;;;;;;;;10.50;50.50;;;;;;5012077;28;20055;-86
2022/04/08 11:31:42;;;;;;;;;;;10.60;49.20;;;;;;5009146;28;19922;-87
2022/04/08 11:34:08;;;;;;;;;;;10.50;47.10;;;;;;5011443;28;20182;-86
2022/04/08 11:36:35;;;;;;;;;;;10.40;49.10;;;;;;5008925;28;20378;-85
2022/04/08 11:39:00;;;;;;;;;;;10.50;48.80;;;;;;5017085;28;19983;-86
2022/04/08 11:41:28;;;;;;;;;;;10.50;49.40;;;;;;5035913;28;19972;-87
2022/04/08 11:43:56;;;;;;;;;;;10.50;49.70;;;;;;5034436;28;19971;-89
2022/04/08 11:46:24;;;;;;;;;;;10.60;50.40;;;;;;5014404;28;20316;-88
2022/04/08 11:48:49;;;;;;;;;;;10.80;50.80;;;;;;5011009;28;19957;-86
2022/04/08 11:51:19;;;;;;;;;;;10.80;51.00;;;;;;5029379;28;19901;-83
2022/04/08 11:53:57;;;;;;;;;;;10.80;50.80;;;;;;5030615;28;19918;-88
2022/04/08 11:56:32;;;;;;;;;;;10.70;50.30;;;;;;5013700;28;19921;-89
2022/04/08 11:59:14;;;;;;;;;;;10.50;50.10;;;;;;5011190;28;19910;-89
2022/04/08 12:01:58;;;;;;;;;;;10.50;51.50;;;;;;5011355;28;19909;-87
2022/04/08 12:04:37;;;;;;;;;;;;;;;;;;;;;
2022/04/08 12:07:02;;;;;;;;;;;10.60;50.20;;;;;;5038399;22;19933;-84
2022/04/08 12:09:28;;;;;;;;;;;10.50;49.20;;;;;;5012588;28;20012;-87
2022/04/08 12:11:56;;;;;;;;;;;10.60;48.40;;;;;;5016489;28;19917;-83
2022/04/08 12:14:22;;;;;;;;;;;10.60;50.30;;;;;;5016345;28;20010;-86
2022/04/08 12:16:48;;;;;;;;;;;10.70;48.90;;;;;;5009466;28;19953;-85
2022/04/08 12:19:19;;;;;;;;;;;10.60;49.40;;;;;;5000160;28;20341;-84
2022/04/08 12:21:46;;;;;;;;;;;10.70;48.90;;;;;;5016747;28;19920;-82
2022/04/08 12:24:11;;;;;;;;;;;10.80;48.90;;;;;;5016562;28;20393;-83
2022/04/08 12:26:38;;;;;;;;;;;10.80;49.60;;;;;;5012439;28;19933;-83
2022/04/08 12:29:05;;;;;;;;;;;10.80;49.30;;;;;;5013264;28;19918;-83
2022/04/08 12:31:43;;;;;;;;;;;10.80;49.90;;;;;;5009804;28;19913;-87
2022/04/08 12:34:09;;;;;;;;;;;10.80;50.50;;;;;;5011324;28;19972;-85
2022/04/08 12:36:35;;;;;;;;;;;10.70;49.50;;;;;;5015326;28;19921;-85
2022/04/08 12:39:00;;;;;;;;;;;10.70;51.00;;;;;;5015028;28;19913;-83
2022/04/08 12:41:26;;;;;;;;;;;10.70;52.30;;;;;;5027496;28;19921;-84
2022/04/08 12:43:54;;;;;;;;;;;10.80;50.40;;;;;;5017324;28;19953;-86
2022/04/08 12:46:20;;;;;;;;;;;10.80;51.00;;;;;;5019827;28;19913;-84
2022/04/08 12:48:46;;;;;;;;;;;10.80;50.70;;;;;;5017030;28;19913;-87
2022/04/08 12:51:11;;;;;;;;;;;10.80;51.10;;;;;;5010831;28;19967;-86
2022/04/08 12:53:37;;;;;;;;;;;11.00;50.80;;;;;;5012896;28;20307;-86
2022/04/08 12:56:02;;;;;;;;;;;10.90;50.00;;;;;;5021627;28;19913;-84
2022/04/08 12:58:28;;;;;;;;;;;10.70;49.00;;;;;;5030863;28;20040;-82
2022/04/08 13:00:54;;;;;;;;;;;10.80;50.50;;;;;;5010285;28;19921;-86
2022/04/08 13:03:20;;;;;;;;;;;10.80;49.30;;;;;;5020108;28;19925;-84
2022/04/08 13:05:45;;;;;;;;;;;10.80;49.80;;;;;;5019048;28;19913;-85
2022/04/08 13:08:11;;;;;;;;;;;10.80;48.80;;;;;;5005891;28;20028;-85
2022/04/08 13:10:37;;;;;;;;;;;10.80;48.70;;;;;;5013504;28;19986;-85
2022/04/08 13:13:03;;;;;;;;;;;10.80;47.70;;;;;;5015403;28;19914;-84
2022/04/08 13:15:28;;;;;;;;;;;10.70;46.90;;;;;;5010232;28;19924;-84
2022/04/08 13:17:54;;;;;;;;;;;10.80;47.80;;;;;;5011953;28;19938;-87
2022/04/08 13:20:19;;;;;;;;;;;10.90;47.60;;;;;;5009937;28;19920;-84
2022/04/08 13:22:45;;;;;;;;;;;10.80;47.90;;;;;;5006950;28;19921;-82
2022/04/08 13:25:10;;;;;;;;;;;10.80;47.40;;;;;;5007455;28;19917;-84
2022/04/08 13:27:36;;;;;;;;;;;10.60;46.70;;;;;;5013661;28;19913;-81
2022/04/08 13:30:02;;;;;;;;;;;10.70;47.50;;;;;;5020505;28;19932;-80
2022/04/08 13:32:32;;;;;;;;;;;10.60;47.10;;;;;;5033078;28;19924;-80
2022/04/08 13:34:58;;;;;;;;;;;10.60;47.60;;;;;;5036766;28;19901;-79
2022/04/08 13:37:24;;;;;;;;;;;10.60;46.20;;;;;;5026069;28;19924;-82
2022/04/08 13:39:49;;;;;;;;;;;10.70;46.60;;;;;;5020923;28;19922;-83
2022/04/08 13:42:15;;;;;;;;;;;10.70;47.70;;;;;;5018700;28;20081;-85
2022/04/08 13:44:40;;;;;;;;;;;10.80;48.60;;;;;;5018837;28;19925;-83
2022/04/08 13:47:06;;;;;;;;;;;10.90;48.80;;;;;;5016193;28;19921;-82
2022/04/08 13:49:31;;;;;;;;;;;10.80;50.40;;;;;;5013630;28;19988;-85
2022/04/08 13:51:57;;;;;;;;;;;10.90;48.10;;;;;;5018375;28;19933;-82
2022/04/08 13:54:22;;;;;;;;;;;10.80;48.10;;;;;;5017840;28;19917;-81
2022/04/08 13:56:48;;;;;;;;;;;10.70;48.20;;;;;;5017847;28;19917;-84
2022/04/08 13:59:13;;;;;;;;;;;10.70;49.50;;;;;;5029924;28;19913;-83
2022/04/08 14:01:39;;;;;;;;;;;10.70;49.50;;;;;;5017650;28;19922;-83
2022/04/08 14:04:06;;;;;;;;;;;10.70;49.70;;;;;;5011227;28;20291;-82
2022/04/08 14:06:32;;;;;;;;;;;10.80;50.60;;;;;;4998100;28;19918;-83
2022/04/08 14:08:57;;;;;;;;;;;10.80;49.70;;;;;;5011772;28;19935;-83
2022/04/08 14:11:23;;;;;;;;;;;10.90;49.60;;;;;;5016390;28;20019;-84
2022/04/08 14:13:48;;;;;;;;;;;10.90;48.20;;;;;;5020276;28;19917;-84
2022/04/08 14:16:14;;;;;;;;;;;10.90;49.50;;;;;;5030428;28;19925;-84
2022/04/08 14:18:39;;;;;;;;;;;10.90;48.00;;;;;;5023985;28;19913;-84
2022/04/08 14:21:04;;;;;;;;;;;11.10;48.80;;;;;;5024795;28;19969;-84
2022/04/08 14:23:32;;;;;;;;;;;11.20;49.20;;;;;;5018626;28;19909;-84
2022/04/08 14:25:57;;;;;;;;;;;11.30;47.10;;;;;;5017027;28;19913;-83